Time;durP1;ratioP1;P1;durP2;ratioP2;P2;SDS_P1;SDS_P2;PMS_P1;PMS_P2;Temp;Humidity;BMP_temperature;BMP_pressure;BME280_temperature;BME280_humidity;BME280_pressure;Samples;Min_cycle;Max_cycle;Signal;HPM_P1;HPM_P2
2023/03/11 00:01:06;;;;;;;6.45;4.75;;;1.00;99.90;;;-144.05;85.56;57103.72;5056227;28;20111;-84
2023/03/11 00:03:31;;;;;;;7.05;4.30;;;1.10;99.90;;;-144.05;85.09;57101.59;5054816;28;20032;-83
2023/03/11 00:06:01;;;;;;;5.55;4.00;;;1.10;99.90;;;-144.05;85.61;57118.59;5055733;28;20098;-83
2023/03/11 00:08:27;;;;;;;5.43;3.90;;;1.00;99.90;;;-144.05;85.67;57129.22;5055123;28;20037;-82
2023/03/11 00:10:59;;;;;;;5.53;4.10;;;1.10;99.90;;;-144.05;84.99;57133.44;5055177;28;20033;-81
2023/03/11 00:13:28;;;;;;;6.10;3.97;;;1.10;99.90;;;-144.05;84.78;57084.59;5056206;28;20477;-82
2023/03/11 00:15:59;;;;;;;5.60;4.18;;;1.10;99.90;;;-144.05;84.94;57088.84;5054570;28;20495;-82
2023/03/11 00:18:32;;;;;;;5.88;4.20;;;1.10;99.90;;;-144.05;85.41;57112.22;5055105;28;20035;-84
2023/03/11 00:21:00;;;;;;;4.53;3.55;;;1.10;99.90;;;-144.05;84.82;57095.22;5055336;28;20082;-83
2023/03/11 00:23:27;;;;;;;6.90;3.63;;;1.10;99.90;;;-144.05;84.84;57112.22;5055973;28;20086;-84
2023/03/11 00:25:54;;;;;;;4.43;3.70;;;1.10;99.90;;;-144.05;85.21;57101.59;5055986;28;20037;-83
2023/03/11 00:28:25;;;;;;;5.20;3.53;;;1.10;99.90;;;-144.05;84.86;57129.22;5055908;28;20033;-85
2023/03/11 00:30:51;;;;;;;4.88;3.75;;;1.10;99.90;;;-144.05;84.23;57114.34;5056502;28;20045;-85
2023/03/11 00:33:17;;;;;;;6.28;4.00;;;1.10;99.90;;;-144.05;83.88;57112.22;5057869;28;20082;-85
2023/03/11 00:35:44;;;;;;;6.88;3.85;;;1.10;99.90;;;-144.05;84.03;57107.97;5073024;28;20032;-80
2023/03/11 00:38:16;;;;;;;5.50;3.25;;;1.10;99.90;;;-144.05;83.58;57101.59;5065170;28;20041;-84
2023/03/11 00:40:46;;;;;;;7.85;4.05;;;1.10;99.90;;;-144.05;83.30;57103.72;5057439;28;20084;-83
2023/03/11 00:43:12;;;;;;;6.75;3.42;;;1.10;99.90;;;-144.05;82.92;57082.47;5057014;28;20033;-85
2023/03/11 00:45:38;;;;;;;5.22;3.50;;;1.10;99.90;;;-144.05;82.92;57118.59;5055988;28;20038;-85
2023/03/11 00:48:08;;;;;;;5.80;3.50;;;1.10;99.90;;;-144.05;82.82;57124.97;5056192;28;20120;-85
2023/03/11 00:50:39;;;;;;;6.20;3.88;;;1.10;99.90;;;-144.05;82.87;57122.84;5055813;28;20040;-82
2023/03/11 00:53:05;;;;;;;4.32;3.25;;;1.10;99.90;;;-144.05;82.61;57124.97;5054614;28;20029;-83
2023/03/11 00:55:34;;;;;;;5.47;4.05;;;1.10;99.90;;;-144.05;82.18;57148.31;5053336;28;20037;-83
2023/03/11 00:58:06;;;;;;;5.53;3.95;;;1.10;99.90;;;-144.05;82.27;57120.72;5052809;28;20409;-80
2023/03/11 01:00:34;;;;;;;7.00;3.72;;;1.10;99.90;;;-144.05;81.80;57105.84;5052846;28;20033;-80
2023/03/11 01:03:00;;;;;;;7.25;4.35;;;1.10;99.90;;;-144.05;81.77;57105.84;5054328;28;20214;-81
2023/03/11 01:05:31;;;;;;;5.15;3.80;;;1.10;99.90;;;-144.05;81.83;57101.59;5054102;28;20032;-81
2023/03/11 01:07:59;;;;;;;5.72;4.03;;;1.10;99.90;;;-144.05;81.14;57101.59;5053747;28;20055;-80
2023/03/11 01:10:26;;;;;;;6.03;3.47;;;1.10;99.90;;;-144.05;81.67;57095.22;5052199;28;20035;-83
2023/03/11 01:12:53;;;;;;;5.40;3.15;;;1.10;99.90;;;-144.05;81.62;57086.72;5053361;28;20033;-82
2023/03/11 01:15:34;;;;;;;5.50;3.85;;;1.10;99.90;;;-144.05;82.24;57082.47;5052163;28;20079;-81
2023/03/11 01:18:02;;;;;;;8.43;3.72;;;1.10;99.90;;;-144.05;81.95;57118.59;5051803;28;20040;-82
2023/03/11 01:20:28;;;;;;;4.55;3.25;;;1.10;99.90;;;-144.05;81.88;57105.84;5051877;28;20407;-82
2023/03/11 01:22:54;;;;;;;8.75;3.72;;;1.00;99.90;;;-144.05;81.36;57133.44;5052454;28;20041;-82
2023/03/11 01:25:23;;;;;;;8.85;3.58;;;1.10;99.90;;;-144.05;82.06;57105.84;5053200;28;20127;-82
2023/03/11 01:27:49;;;;;;;5.72;3.50;;;1.10;99.90;;;-144.05;81.83;57099.47;5051976;28;20112;-82
2023/03/11 01:30:22;;;;;;;6.10;3.35;;;1.00;99.90;;;-144.05;81.76;57103.72;5052900;28;20093;-83
2023/03/11 01:32:49;;;;;;;6.85;3.50;;;1.10;99.90;;;-144.05;81.84;57101.59;5053209;28;20092;-84
2023/03/11 01:35:19;;;;;;;5.63;3.20;;;1.10;99.90;;;-144.05;81.75;57127.09;5054000;28;20033;-83
2023/03/11 01:37:46;;;;;;;7.55;3.40;;;1.10;99.90;;;-144.05;81.17;57129.22;5052357;28;20040;-82
2023/03/11 01:40:36;;;;;;;5.00;3.40;;;1.10;99.90;;;-144.05;81.45;57110.09;5052347;28;20070;-83
2023/03/11 01:43:25;;;;;;;5.72;2.97;;;1.10;99.90;;;-144.05;81.29;57105.84;5054597;28;20396;-82
2023/03/11 01:45:51;;;;;;;12.50;3.55;;;1.10;99.90;;;-144.05;81.17;57105.84;5053823;28;20123;-82
2023/03/11 01:48:17;;;;;;;3.88;2.75;;;1.00;99.90;;;-144.05;80.55;57103.72;5052736;28;20140;-84
2023/03/11 01:50:49;;;;;;;5.03;3.00;;;1.10;99.90;;;-144.05;80.87;57112.22;5052646;28;20064;-83
2023/03/11 01:53:17;;;;;;;8.48;2.70;;;1.10;99.90;;;-144.05;80.81;57124.97;5054504;28;20033;-82
2023/03/11 01:55:46;;;;;;;5.68;3.15;;;1.00;99.90;;;-144.05;81.37;57122.84;5054084;28;20063;-82
2023/03/11 01:58:23;;;;;;;4.22;2.83;;;1.00;99.90;;;-144.05;81.66;57101.59;5053047;28;20036;-85
2023/03/11 02:00:50;;;;;;;6.93;2.80;;;1.10;99.90;;;-144.05;81.47;57082.47;5054377;28;20145;-83
2023/03/11 02:03:36;;;;;;;5.13;2.63;;;1.10;99.90;;;-144.05;81.61;57086.72;5053564;28;20036;-83
2023/03/11 02:06:10;;;;;;;3.78;2.28;;;1.00;99.90;;;-144.05;81.54;57122.84;5053437;28;20128;-84
2023/03/11 02:08:36;;;;;;;4.78;2.60;;;1.00;99.90;;;-144.05;81.14;57097.34;5055372;28;20067;-84
2023/03/11 02:11:08;;;;;;;5.32;2.22;;;1.10;99.90;;;-144.05;81.15;57086.72;5053743;28;20106;-86
2023/03/11 02:13:38;;;;;;;7.22;2.10;;;1.00;99.90;;;-144.05;81.19;57103.72;5053335;28;20028;-82
2023/03/11 02:16:04;;;;;;;6.47;2.95;;;1.10;99.90;;;-144.05;80.87;57101.59;5053446;28;20029;-82
2023/03/11 02:18:31;;;;;;;4.75;2.65;;;1.00;99.90;;;-144.05;81.21;57116.47;5054715;28;20033;-84
2023/03/11 02:21:26;;;;;;;7.82;2.92;;;1.00;99.90;;;-144.05;81.41;57112.22;5055549;28;20025;-81
2023/03/11 02:24:12;;;;;;;6.97;3.22;;;1.00;99.90;;;-144.05;81.13;57120.72;5054723;28;20037;-83
2023/03/11 02:27:10;;;;;;;;;;;1.00;99.90;;;-144.05;80.43;57116.47;5056742;28;20043;-84
2023/03/11 02:29:39;;;;;;;8.43;4.20;;;1.00;99.90;;;-144.05;80.79;57099.47;5057377;28;19974;-84
2023/03/11 02:32:09;;;;;;;7.18;4.43;;;1.00;99.90;;;-144.05;81.31;57093.09;5069903;28;20018;-81
2023/03/11 02:34:38;;;;;;;9.60;3.90;;;1.00;99.90;;;-144.05;81.34;57122.84;5064798;28;20032;-82
2023/03/11 02:37:15;;;;;;;8.52;4.03;;;1.00;99.90;;;-144.05;81.29;57114.34;5051442;28;20082;-80
2023/03/11 02:39:52;;;;;;;7.82;4.13;;;1.00;99.90;;;-144.05;81.10;57158.94;5051911;28;20036;-81
2023/03/11 02:42:31;;;;;;;7.25;3.70;;;1.00;99.90;;;-144.05;81.11;57101.59;5050826;28;20028;-83
2023/03/11 02:45:22;;;;;;;7.10;3.13;;;1.00;99.90;;;-144.05;81.45;57112.22;5052524;28;20090;-82
2023/03/11 02:47:53;;;;;;;5.07;2.38;;;1.00;99.90;;;-144.05;80.27;57118.59;5052829;28;20130;-82
2023/03/11 02:50:20;;;;;;;6.47;2.70;;;1.00;99.90;;;-144.05;79.82;57110.09;5050470;28;20037;-82
2023/03/11 02:52:49;;;;;;;8.48;2.90;;;1.00;99.90;;;-144.05;79.37;57122.84;5050970;28;20027;-83
2023/03/11 02:55:16;;;;;;;6.78;2.28;;;1.00;99.90;;;-144.05;79.22;57112.22;5051068;28;20083;-82
2023/03/11 02:57:46;;;;;;;6.63;2.08;;;1.00;99.90;;;-144.05;79.45;57112.22;5052484;28;20079;-82
2023/03/11 03:00:15;;;;;;;7.00;2.28;;;0.90;99.90;;;-144.05;79.28;57097.34;5052129;28;20135;-83
2023/03/11 03:02:45;;;;;;;5.07;2.45;;;0.90;99.90;;;-144.05;79.69;57116.47;5052916;28;20033;-81
2023/03/11 03:05:12;;;;;;;7.07;2.10;;;1.00;99.90;;;-144.05;79.06;57107.97;5055440;28;20036;-82
2023/03/11 03:07:38;;;;;;;6.78;2.13;;;0.90;99.90;;;-144.05;79.47;57110.09;5055454;28;20119;-82
2023/03/11 03:10:08;;;;;;;7.15;2.90;;;0.90;99.90;;;-144.05;79.16;57127.09;5052662;28;20033;-82
2023/03/11 03:12:34;;;;;;;5.47;2.70;;;0.90;99.90;;;-144.05;79.33;57097.34;5053223;28;20029;-84
2023/03/11 03:14:59;;;;;;;7.07;2.40;;;0.90;99.90;;;-144.05;79.65;57084.59;5052283;28;20396;-85
2023/03/11 03:17:25;;;;;;;9.20;3.50;;;0.90;99.90;;;-144.05;79.83;57131.31;5053995;28;20053;-84
2023/03/11 03:19:51;;;;;;;7.47;3.33;;;0.90;99.90;;;-144.05;79.67;57099.47;5053717;28;20029;-83
2023/03/11 03:22:17;;;;;;;4.75;2.45;;;0.90;99.90;;;-144.05;79.85;57107.97;5053566;28;20029;-83
2023/03/11 03:24:43;;;;;;;9.38;3.15;;;0.90;99.90;;;-144.05;80.13;57112.22;5052128;28;20484;-82
2023/03/11 03:27:09;;;;;;;5.93;2.90;;;0.90;99.90;;;-144.05;80.45;57114.34;5052893;28;20025;-82
2023/03/11 03:29:35;;;;;;;5.35;2.92;;;0.90;99.90;;;-144.05;80.25;57110.09;5051434;28;20213;-83
2023/03/11 03:32:01;;;;;;;5.85;2.72;;;0.90;99.90;;;-144.05;80.10;57099.47;5053680;28;20516;-83
2023/03/11 03:34:27;;;;;;;5.72;3.45;;;0.90;99.90;;;-144.05;80.38;57093.09;5052983;28;20050;-83
2023/03/11 03:36:52;;;;;;;8.38;3.83;;;0.90;99.90;;;-144.05;80.74;57101.59;5054062;28;20365;-84
2023/03/11 03:39:18;;;;;;;10.40;3.60;;;0.90;99.90;;;-144.05;80.39;57116.47;5054182;28;20033;-84
2023/03/11 03:41:44;;;;;;;9.75;4.00;;;1.00;99.90;;;-144.05;80.17;57116.47;5053002;28;20443;-84
2023/03/11 03:44:10;;;;;;;7.35;3.38;;;1.00;99.90;;;-144.05;79.71;57088.84;5055118;28;20032;-84
2023/03/11 03:46:37;;;;;;;11.40;3.50;;;1.00;99.90;;;-144.05;79.73;57122.84;5056195;28;20029;-82
2023/03/11 03:49:03;;;;;;;9.13;3.85;;;1.00;99.90;;;-144.05;80.37;57090.97;5051669;28;20079;-81
2023/03/11 03:51:29;;;;;;;7.10;3.42;;;1.00;99.90;;;-144.05;80.00;57112.22;5052277;28;20029;-84
2023/03/11 03:53:54;;;;;;;12.32;3.30;;;1.00;99.90;;;-144.05;80.02;57103.72;5052623;28;20115;-83
2023/03/11 03:56:20;;;;;;;10.13;2.92;;;1.00;99.90;;;-144.05;79.71;57097.34;5055238;28;20033;-83
2023/03/11 03:58:46;;;;;;;7.70;2.90;;;1.00;99.90;;;-144.05;79.74;57107.97;5056578;28;20025;-82
2023/03/11 04:01:13;;;;;;;9.15;3.78;;;1.00;99.90;;;-144.05;79.55;57105.84;5058002;28;20109;-83
2023/03/11 04:03:39;;;;;;;10.57;3.17;;;0.90;99.90;;;-144.05;79.97;57114.34;5057208;28;20043;-84
2023/03/11 04:06:18;;;;;;;7.53;2.88;;;0.90;99.90;;;-144.05;79.52;57082.47;5057190;28;20056;-82
2023/03/11 04:08:44;;;;;;;9.02;2.95;;;0.90;99.90;;;-144.05;79.98;57116.47;5057013;28;20046;-82
2023/03/11 04:11:12;;;;;;;6.63;2.70;;;0.90;99.90;;;-144.05;79.48;57120.72;5056814;28;20043;-83
2023/03/11 04:13:38;;;;;;;7.00;2.78;;;0.90;99.90;;;-144.05;79.32;57105.84;5058236;28;20035;-84
2023/03/11 04:16:06;;;;;;;11.60;2.97;;;0.90;99.90;;;-144.05;79.26;57103.72;5060356;28;20051;-84
2023/03/11 04:18:33;;;;;;;6.25;2.40;;;0.90;99.90;;;-144.05;79.17;57135.56;5060554;28;20037;-84
2023/03/11 04:21:03;;;;;;;6.65;3.83;;;0.90;99.90;;;-144.05;79.26;57114.34;5059701;28;20029;-83
2023/03/11 04:23:29;;;;;;;6.57;2.88;;;0.90;99.90;;;-144.05;79.52;57097.34;5061456;28;20032;-85
2023/03/11 04:25:54;;;;;;;9.65;3.00;;;0.90;99.90;;;-144.05;79.22;57124.97;5059919;28;20036;-84
2023/03/11 04:28:20;;;;;;;9.02;2.50;;;0.80;99.90;;;-144.05;79.62;57103.72;5069935;28;20028;-84
2023/03/11 04:30:46;;;;;;;12.48;3.30;;;0.80;99.90;;;-144.05;79.43;57103.72;5067879;28;20029;-82
2023/03/11 04:33:12;;;;;;;5.88;2.65;;;0.80;99.90;;;-144.05;79.49;57107.97;5055775;28;20096;-82
2023/03/11 04:35:39;;;;;;;11.13;3.33;;;0.80;99.90;;;-144.05;79.27;57154.69;5053834;28;20090;-82
2023/03/11 04:38:05;;;;;;;14.18;3.38;;;0.80;99.90;;;-144.05;79.15;57105.84;5053727;28;20086;-81
2023/03/11 04:40:31;;;;;;;9.60;2.75;;;0.80;99.90;;;-144.05;78.84;57116.47;5055240;28;20118;-83
2023/03/11 04:42:57;;;;;;;11.45;3.08;;;0.80;99.90;;;-144.05;78.93;57110.09;5053843;28;20033;-82
2023/03/11 04:45:23;;;;;;;6.28;2.42;;;0.80;99.90;;;-144.05;78.89;57116.47;5056716;28;20531;-81
2023/03/11 04:47:50;;;;;;;8.32;2.85;;;0.80;99.90;;;-144.05;78.53;57103.72;5054840;28;20033;-83
2023/03/11 04:50:18;;;;;;;18.00;3.22;;;0.80;99.90;;;-144.05;78.27;57129.22;5053119;28;20063;-81
2023/03/11 04:52:45;;;;;;;6.65;3.78;;;0.80;99.90;;;-144.05;78.30;57086.72;5053409;28;20032;-82
2023/03/11 04:55:12;;;;;;;10.77;2.60;;;0.80;99.90;;;-144.05;78.04;57103.72;5054580;28;20036;-81
2023/03/11 04:57:42;;;;;;;7.82;2.70;;;0.80;99.90;;;-144.05;78.20;57103.72;5053833;28;20036;-81
2023/03/11 05:00:11;;;;;;;11.70;2.90;;;0.80;99.90;;;-144.05;78.58;57133.44;5054792;28;20040;-83
2023/03/11 05:02:39;;;;;;;8.48;2.60;;;0.80;99.90;;;-144.05;78.15;57120.72;5054374;28;20045;-82
2023/03/11 05:05:08;;;;;;;14.23;5.32;;;0.80;99.90;;;-144.05;78.43;57110.09;5053330;28;20040;-81
2023/03/11 05:07:35;;;;;;;8.68;2.75;;;0.80;99.90;;;-144.05;78.11;57103.72;5053558;28;20037;-82
2023/03/11 05:10:03;;;;;;;9.18;2.45;;;0.80;99.90;;;-144.05;77.80;57127.09;5054246;28;20041;-83
2023/03/11 05:12:29;;;;;;;7.43;2.35;;;0.80;99.90;;;-144.05;77.52;57065.47;5051935;28;20031;-83
2023/03/11 05:14:55;;;;;;;6.90;2.33;;;0.70;99.90;;;-144.05;77.34;57095.22;5054066;28;20029;-82
2023/03/11 05:17:21;;;;;;;7.05;2.35;;;0.80;99.90;;;-144.05;76.69;57107.97;5053621;28;20043;-84
2023/03/11 05:19:47;;;;;;;4.88;2.42;;;0.70;99.90;;;-144.05;76.46;57118.59;5053568;28;20175;-83
2023/03/11 05:22:13;;;;;;;12.45;2.67;;;0.70;99.90;;;-144.05;76.55;57112.22;5053144;28;20032;-83
2023/03/11 05:24:39;;;;;;;7.43;2.58;;;0.70;99.90;;;-144.05;76.77;57097.34;5053735;28;20036;-80
2023/03/11 05:27:05;;;;;;;7.57;2.53;;;0.70;99.90;;;-144.05;77.08;57127.09;5054196;28;20051;-81
2023/03/11 05:29:31;;;;;;;13.40;3.03;;;0.70;99.90;;;-144.05;77.04;57112.22;5053120;28;20091;-80
2023/03/11 05:31:57;;;;;;;12.55;3.28;;;0.70;99.90;;;-144.05;77.29;57093.09;5054090;28;20047;-81
2023/03/11 05:34:23;;;;;;;11.23;2.47;;;0.70;99.90;;;-144.05;77.25;57141.94;5052954;28;20444;-80
2023/03/11 05:36:49;;;;;;;12.23;2.63;;;0.70;99.90;;;-144.05;76.79;57114.34;5052923;28;20060;-81
2023/03/11 05:39:15;;;;;;;10.05;2.38;;;0.70;99.90;;;-144.05;76.71;57090.97;5052286;28;20115;-81
2023/03/11 05:41:41;;;;;;;7.00;2.45;;;0.70;99.90;;;-144.05;76.72;57118.59;5052418;28;20032;-82
2023/03/11 05:44:07;;;;;;;10.93;2.33;;;0.70;99.90;;;-144.05;76.71;57120.72;5054602;28;20063;-83
2023/03/11 05:46:34;;;;;;;7.25;2.35;;;0.70;99.90;;;-144.05;76.37;57090.97;5053020;28;20032;-81
2023/03/11 05:49:00;;;;;;;14.57;2.55;;;0.70;99.90;;;-144.05;76.54;57107.97;5052790;28;20029;-80
2023/03/11 05:51:26;;;;;;;7.03;2.47;;;0.70;99.90;;;-144.05;76.67;57110.09;5054353;28;20044;-81
2023/03/11 05:53:52;;;;;;;9.85;3.03;;;0.70;99.90;;;-144.05;76.71;57127.09;5052578;28;20033;-81
2023/03/11 05:56:21;;;;;;;13.48;2.80;;;0.70;99.90;;;-144.05;76.29;57103.72;5052939;28;20052;-83
2023/03/11 05:58:48;;;;;;;11.73;2.50;;;0.70;99.90;;;-144.05;76.31;57135.56;5053390;28;20470;-81
2023/03/11 06:01:19;;;;;;;9.45;2.53;;;0.70;99.90;;;-144.05;76.66;57076.09;5055164;28;20425;-81
2023/03/11 06:03:45;;;;;;;6.30;2.25;;;0.70;99.90;;;-144.05;76.10;57124.97;5053872;28;20033;-81
2023/03/11 06:06:13;;;;;;;9.65;2.45;;;0.70;99.90;;;-144.05;75.84;57120.72;5054405;28;20464;-82
2023/03/11 06:08:44;;;;;;;6.63;2.53;;;0.70;99.90;;;-144.05;75.72;57110.09;5054890;28;20028;-81
2023/03/11 06:11:10;;;;;;;9.07;3.13;;;0.70;99.90;;;-144.05;75.69;57078.22;5057119;28;20060;-82
2023/03/11 06:13:37;;;;;;;7.18;2.22;;;0.60;99.90;;;-144.05;75.67;57097.34;5055189;28;20399;-81
2023/03/11 06:16:04;;;;;;;5.35;1.90;;;0.60;99.90;;;-144.05;75.00;57090.97;5054814;28;20048;-81
2023/03/11 06:18:30;;;;;;;6.47;2.05;;;0.60;99.90;;;-144.05;74.70;57116.47;5056687;28;20032;-82
2023/03/11 06:21:01;;;;;;;5.20;2.08;;;0.70;99.90;;;-144.05;74.72;57103.72;5055879;28;20033;-83
2023/03/11 06:23:29;;;;;;;10.68;2.10;;;0.60;99.90;;;-144.05;74.64;57107.97;5059613;28;20036;-85
2023/03/11 06:26:04;;;;;;;7.20;2.38;;;0.60;99.90;;;-144.05;74.78;57112.22;5074423;28;20025;-81
2023/03/11 06:28:32;;;;;;;7.72;2.42;;;0.60;99.90;;;-144.05;74.66;57120.72;5056936;28;20017;-83
2023/03/11 06:31:14;;;;;;;9.23;2.10;;;0.60;99.90;;;-144.05;74.16;57131.31;5056622;28;20082;-81
2023/03/11 06:33:40;;;;;;;10.50;2.08;;;0.60;99.90;;;-144.05;73.72;57103.72;5057736;28;20020;-83
2023/03/11 06:36:07;;;;;;;9.73;2.00;;;0.60;99.90;;;-144.05;73.65;57118.59;5057356;28;20461;-83
2023/03/11 06:38:34;;;;;;;7.20;1.88;;;0.60;99.90;;;-144.05;73.72;57114.34;5059317;28;20123;-83
2023/03/11 06:41:06;;;;;;;7.65;1.90;;;0.60;99.90;;;-144.05;73.96;57095.22;5057430;28;20036;-82
2023/03/11 06:43:33;;;;;;;5.10;1.88;;;0.60;99.90;;;-144.05;73.99;57124.97;5056268;28;20342;-84
2023/03/11 06:46:06;;;;;;;6.88;2.70;;;0.70;99.90;;;-144.05;73.84;57112.22;5057159;28;20056;-82
2023/03/11 06:48:32;;;;;;;8.90;3.08;;;0.70;99.90;;;-144.05;73.74;57101.59;5055946;28;20025;-80
2023/03/11 06:51:00;;;;;;;8.30;2.40;;;0.70;99.90;;;-144.05;74.18;57116.47;5054464;28;20040;-80
2023/03/11 06:53:28;;;;;;;5.93;2.00;;;0.70;99.90;;;-144.05;74.28;57112.22;5055035;28;20334;-80
2023/03/11 06:56:08;;;;;;;8.32;2.33;;;0.70;99.90;;;-144.05;74.30;57124.97;5054484;28;20061;-82
2023/03/11 06:58:38;;;;;;;9.10;2.55;;;0.70;99.90;;;-144.05;74.43;57090.97;5052537;28;20086;-82
2023/03/11 07:01:12;;;;;;;9.18;2.92;;;0.70;99.90;;;-144.05;74.56;57095.22;5052487;28;20061;-81
2023/03/11 07:03:38;;;;;;;7.03;1.73;;;0.80;99.90;;;-144.05;74.04;57088.84;5052897;28;20036;-83
2023/03/11 07:06:05;;;;;;;7.93;2.97;;;1.00;99.90;;;-144.05;72.49;57105.84;5054116;28;20043;-82
2023/03/11 07:08:31;;;;;;;9.45;2.25;;;1.20;99.90;;;-144.05;71.51;57097.34;5054410;28;20087;-82
2023/03/11 07:11:11;;;;;;;5.40;1.90;;;1.30;99.90;;;-144.05;70.80;57078.22;5054418;28;20029;-82
2023/03/11 07:13:38;;;;;;;9.95;3.75;;;1.30;99.90;;;-144.05;70.21;57090.97;5055982;28;20033;-79
2023/03/11 07:16:14;;;;;;;9.68;2.40;;;1.40;99.90;;;-144.05;69.96;57065.47;5056402;28;20074;-81
2023/03/11 07:18:42;;;;;;;11.98;2.97;;;1.40;99.90;;;-144.05;69.83;57078.22;5054679;28;20124;-84
2023/03/11 07:21:11;;;;;;;21.00;4.45;;;1.70;99.90;;;-144.05;69.17;57059.09;5053633;28;20041;-81
2023/03/11 07:23:36;;;;;;;21.77;6.38;;;1.90;99.90;;;-144.05;67.39;57080.34;5054476;28;20033;-82
2023/03/11 07:26:03;;;;;;;11.35;2.67;;;2.00;99.90;;;-144.05;66.28;57076.09;5055850;28;20036;-81
2023/03/11 07:28:30;;;;;;;21.98;5.95;;;2.20;99.90;;;-144.05;65.88;57080.34;5054322;28;20049;-83
2023/03/11 07:30:56;;;;;;;9.30;2.30;;;2.20;99.90;;;-144.05;64.99;57084.59;5057140;28;20481;-80
2023/03/11 07:33:23;;;;;;;13.07;2.58;;;2.10;99.90;;;-144.05;65.38;57078.22;5058177;28;20029;-81
2023/03/11 07:35:50;;;;;;;10.52;2.13;;;2.10;99.90;;;-144.05;66.31;57095.22;5057300;28;20086;-83
2023/03/11 07:38:18;;;;;;;9.50;2.08;;;1.90;99.90;;;-144.05;66.41;57095.22;5058308;28;20411;-81
2023/03/11 07:40:57;;;;;;;6.38;1.80;;;2.00;99.90;;;-144.05;65.98;57063.34;5059527;28;20033;-82
2023/03/11 07:43:23;;;;;;;7.50;2.45;;;2.20;99.90;;;-144.05;65.32;57078.22;5060542;28;20162;-87
2023/03/11 07:45:50;;;;;;;14.32;5.65;;;2.50;99.90;;;-144.05;65.36;57035.75;5060921;28;20033;-81
2023/03/11 07:48:17;;;;;;;6.55;2.38;;;2.80;99.90;;;-144.05;63.57;57054.88;5060708;28;20083;-82
2023/03/11 07:50:42;;;;;;;5.53;2.05;;;2.90;99.90;;;-144.05;63.35;57065.47;5060217;28;20025;-80
2023/03/11 07:53:08;;;;;;;12.85;2.33;;;2.90;99.90;;;-144.05;63.33;57082.47;5057325;28;20024;-81
2023/03/11 07:55:34;;;;;;;7.72;1.90;;;3.10;99.90;;;-144.05;62.82;57044.25;5058196;28;20032;-83
2023/03/11 07:58:00;;;;;;;6.13;1.98;;;3.20;99.90;;;-144.05;62.56;57054.88;5060437;28;20032;-85
2023/03/11 08:00:26;;;;;;;10.88;1.90;;;3.20;99.90;;;-144.05;61.38;57063.34;5061699;28;20036;-86
2023/03/11 08:02:51;;;;;;;5.60;1.88;;;3.50;99.90;;;-144.05;60.61;57056.97;5060996;28;20404;-82
2023/03/11 08:05:19;;;;;;;5.53;1.80;;;3.60;99.90;;;-144.05;60.26;57071.84;5061965;28;20426;-84
2023/03/11 08:07:45;;;;;;;8.40;1.70;;;3.90;99.90;;;-144.05;59.53;57078.22;5060144;28;20039;-84
2023/03/11 08:10:12;;;;;;;9.50;2.05;;;3.80;99.90;;;-144.05;59.80;57056.97;5061326;28;20076;-83
2023/03/11 08:12:39;;;;;;;5.07;1.52;;;3.70;99.90;;;-144.05;58.80;57061.22;5061860;28;20028;-83
2023/03/11 08:15:06;;;;;;;6.97;1.83;;;3.60;99.90;;;-144.05;58.98;57069.72;5061863;28;20059;-84
2023/03/11 08:17:31;;;;;;;8.70;2.47;;;3.70;99.90;;;-144.05;58.92;57056.97;5061045;28;20025;-87
2023/03/11 08:19:57;;;;;;;7.82;1.58;;;3.90;99.90;;;-144.05;58.43;57061.22;5060625;28;20445;-86
2023/03/11 08:22:23;;;;;;;4.88;1.45;;;4.20;99.90;;;-144.05;57.06;57025.13;5074217;28;20063;-84
2023/03/11 08:24:52;;;;;;;3.55;1.55;;;4.30;99.90;;;-144.05;56.18;57069.72;5065258;28;20033;-84
2023/03/11 08:27:18;;;;;;;8.45;3.28;;;4.40;99.90;;;-144.05;57.17;57044.25;5059315;28;20450;-82
2023/03/11 08:29:44;;;;;;;5.90;1.85;;;4.50;99.90;;;-144.05;56.52;57048.50;5057067;28;20041;-81
2023/03/11 08:32:10;;;;;;;12.30;3.75;;;4.70;99.90;;;-144.05;55.23;57048.50;5058338;28;20099;-83
2023/03/11 08:34:38;;;;;;;10.45;5.10;;;4.50;99.90;;;-144.05;55.92;57033.63;5058808;28;20120;-83
2023/03/11 08:37:04;;;;;;;8.10;2.35;;;4.40;99.90;;;-144.05;56.18;57063.34;5059012;28;20116;-84
2023/03/11 08:39:29;;;;;;;7.40;2.03;;;4.30;99.90;;;-144.05;55.43;57061.22;5061126;28;20419;-84
2023/03/11 08:41:55;;;;;;;6.68;2.03;;;4.30;99.90;;;-144.05;57.12;57027.25;5060055;28;20029;-85
2023/03/11 08:44:21;;;;;;;10.10;2.33;;;4.60;99.90;;;-144.05;55.25;57035.75;5059184;28;20040;-84
2023/03/11 08:46:47;;;;;;;5.13;2.38;;;4.70;99.90;;;-144.05;55.72;57035.75;5058909;28;20101;-82
2023/03/11 08:49:13;;;;;;;3.45;1.17;;;4.90;99.90;;;-144.05;54.13;57025.13;5056956;28;20029;-82
2023/03/11 08:51:39;;;;;;;3.97;1.25;;;5.20;99.90;;;-144.05;51.04;57031.50;5056639;28;20068;-85
2023/03/11 08:54:05;;;;;;;5.07;2.30;;;5.20;99.90;;;-144.05;52.30;57035.75;5056773;28;20068;-83
2023/03/11 08:56:31;;;;;;;3.80;1.30;;;5.40;99.90;;;-144.05;49.50;57054.88;5058429;28;20064;-83
2023/03/11 08:58:57;;;;;;;3.63;1.40;;;5.20;99.90;;;-144.05;50.39;57042.13;5058066;28;20145;-84
2023/03/11 09:01:23;;;;;;;5.72;1.27;;;5.20;99.90;;;-144.05;49.47;57014.50;5057435;28;20120;-83
2023/03/11 09:03:49;;;;;;;5.35;1.25;;;5.40;99.90;;;-144.05;48.38;57044.25;5057493;28;20101;-85
2023/03/11 09:06:17;;;;;;;4.00;1.10;;;5.50;99.90;;;-144.05;48.37;57029.38;5057897;28;20029;-84
2023/03/11 09:08:45;;;;;;;4.07;0.93;;;5.50;99.90;;;-144.05;47.29;57018.75;5058430;28;20028;-83
2023/03/11 09:11:12;;;;;;;4.47;1.25;;;5.50;99.90;;;-144.05;47.86;57018.75;5060276;28;20052;-84
2023/03/11 09:13:40;;;;;;;6.97;1.38;;;5.90;99.90;;;-144.05;45.85;57031.50;5061199;28;20104;-83
2023/03/11 09:16:27;;;;;;;5.22;1.70;;;6.00;99.90;;;-144.05;47.51;57010.25;5060108;28;20104;-84
2023/03/11 09:18:53;;;;;;;7.50;1.27;;;5.90;99.90;;;-144.05;45.76;57014.50;5059480;28;20037;-82
2023/03/11 09:21:19;;;;;;;3.67;0.88;;;6.10;99.90;;;-144.05;44.01;57040.00;5057760;28;20029;-83
2023/03/11 09:23:46;;;;;;;8.93;1.38;;;6.20;99.90;;;-144.05;42.81;57006.00;5057845;28;20036;-80
2023/03/11 09:26:13;;;;;;;5.90;0.75;;;6.20;99.90;;;-144.05;42.59;57020.88;5057672;28;20060;-84
2023/03/11 09:28:41;;;;;;;5.38;1.00;;;6.30;99.90;;;-144.05;41.75;57023.00;5058202;28;20174;-83
2023/03/11 09:31:07;;;;;;;6.53;1.00;;;6.20;99.90;;;-144.05;42.94;57010.25;5056421;28;20032;-84
2023/03/11 09:33:42;;;;;;;5.32;1.00;;;6.40;99.90;;;-144.05;41.72;57020.88;5057673;28;20105;-83
2023/03/11 09:36:20;;;;;;;2.55;0.95;;;6.70;99.90;;;-144.05;40.51;57008.13;5057714;28;20025;-84
2023/03/11 09:38:47;;;;;;;5.00;1.05;;;7.00;99.90;;;-144.05;41.46;57018.75;5058703;28;20103;-84
2023/03/11 09:41:16;;;;;;;4.30;0.90;;;6.90;99.90;;;-144.05;39.38;57014.50;5058427;28;20104;-83
2023/03/11 09:43:58;;;;;;;2.63;0.57;;;6.00;99.90;;;-144.05;41.91;57063.34;5057298;28;20119;-82
2023/03/11 09:47:16;;;;;;;4.57;1.02;;;5.20;99.90;;;-144.05;42.51;57048.50;5057936;28;20090;-82
2023/03/11 09:50:28;;;;;;;3.40;0.90;;;4.90;99.90;;;-144.05;42.77;57056.97;5056275;28;20100;-81
2023/03/11 09:53:40;;;;;;;3.85;0.70;;;4.60;99.90;;;-144.05;42.10;57042.13;5053406;28;20041;-84
2023/03/11 09:56:14;;;;;;;4.25;1.00;;;4.40;99.90;;;-144.05;42.91;57065.47;5056939;28;20163;-84
2023/03/11 09:59:00;;;;;;;6.38;0.90;;;4.60;99.90;;;-144.05;43.54;57044.25;5056590;28;20029;-84
2023/03/11 10:01:37;;;;;;;2.42;0.70;;;5.00;99.90;;;-144.05;42.84;57048.50;5057330;28;20211;-83
2023/03/11 10:04:15;;;;;;;4.13;0.82;;;5.10;99.90;;;-144.05;42.55;57069.72;5056585;28;20154;-82
2023/03/11 10:06:46;;;;;;;8.43;1.10;;;4.90;99.90;;;-144.05;42.05;57048.50;5055592;28;20033;-81
2023/03/11 10:09:59;;;;;;;4.18;0.88;;;5.30;99.90;;;-144.05;41.19;57023.00;5056240;28;20123;-79
2023/03/11 10:13:05;;;;;;;5.80;0.98;;;6.00;99.90;;;-144.05;40.46;56993.25;5039443;28;20032;-84
2023/03/11 10:15:55;;;;;;;3.92;0.75;;;6.70;99.90;;;-144.05;40.15;56993.25;5059797;28;20431;-83
2023/03/11 10:18:29;;;;;;;2.78;0.93;;;6.80;99.90;;;-144.05;39.59;57006.00;5059603;28;20021;-81
2023/03/11 10:21:20;;;;;;;4.07;1.00;;;6.60;99.90;;;-144.05;40.66;57003.88;5074223;28;20048;-79
2023/03/11 10:24:18;;;;;;;3.83;1.13;;;6.40;99.90;;;-144.05;41.46;57001.75;5058668;28;20021;-82